sensor_id;sensor_type;location;lat;lon;timestamp;pressure;altitude;pressure_sealevel;temperature;humidity
56040;BME280;43937;41.366;2.072;2023-03-16T00:01:10;101024.53;;;13.18;75.96
56040;BME280;43937;41.366;2.072;2023-03-16T00:03:36;101014.28;;;13.20;74.94
56040;BME280;43937;41.366;2.072;2023-03-16T00:07:41;101012.41;;;13.21;76.33
56040;BME280;43937;41.366;2.072;2023-03-16T00:15:03;101022.91;;;13.48;75.49
56040;BME280;43937;41.366;2.072;2023-03-16T00:17:29;101006.97;;;13.52;75.47
56040;BME280;43937;41.366;2.072;2023-03-16T00:24:40;100989.97;;;13.42;76.52
56040;BME280;43937;41.366;2.072;2023-03-16T00:31:10;100980.06;;;13.41;76.63
56040;BME280;43937;41.366;2.072;2023-03-16T00:34:59;100999.50;;;13.46;76.92
56040;BME280;43937;41.366;2.072;2023-03-16T00:37:26;101008.56;;;13.46;77.03
56040;BME280;43937;41.366;2.072;2023-03-16T00:42:09;101010.06;;;13.49;77.24
56040;BME280;43937;41.366;2.072;2023-03-16T00:44:36;100978.25;;;13.25;77.47
56040;BME280;43937;41.366;2.072;2023-03-16T00:47:03;101011.84;;;13.42;78.03
56040;BME280;43937;41.366;2.072;2023-03-16T00:51:02;101003.53;;;13.27;77.82
56040;BME280;43937;41.366;2.072;2023-03-16T00:54:55;100980.56;;;12.89;77.74
56040;BME280;43937;41.366;2.072;2023-03-16T01:01:49;100984.06;;;12.66;77.69
56040;BME280;43937;41.366;2.072;2023-03-16T01:04:16;100997.72;;;12.66;78.81
56040;BME280;43937;41.366;2.072;2023-03-16T01:11:23;101002.19;;;12.43;79.30
56040;BME280;43937;41.366;2.072;2023-03-16T01:13:49;100980.38;;;12.26;79.87
56040;BME280;43937;41.366;2.072;2023-03-16T01:21:55;101000.50;;;12.42;79.44
56040;BME280;43937;41.366;2.072;2023-03-16T01:25:28;101005.78;;;12.43;78.54
56040;BME280;43937;41.366;2.072;2023-03-16T01:27:54;100964.88;;;12.02;78.14
56040;BME280;43937;41.366;2.072;2023-03-16T01:33:45;100979.31;;;11.78;78.13
56040;BME280;43937;41.366;2.072;2023-03-16T01:37:31;100991.28;;;11.94;78.35
56040;BME280;43937;41.366;2.072;2023-03-16T01:49:39;100986.19;;;11.99;80.12
56040;BME280;43937;41.366;2.072;2023-03-16T01:53:25;100959.59;;;11.93;80.51
56040;BME280;43937;41.366;2.072;2023-03-16T02:07:31;100976.94;;;11.83;80.26
56040;BME280;43937;41.366;2.072;2023-03-16T02:10:00;100965.00;;;11.76;79.58
56040;BME280;43937;41.366;2.072;2023-03-16T02:12:27;100960.22;;;11.70;80.17
56040;BME280;43937;41.366;2.072;2023-03-16T02:18:27;100944.66;;;11.46;79.96
56040;BME280;43937;41.366;2.072;2023-03-16T02:22:09;100970.03;;;11.46;80.04
56040;BME280;43937;41.366;2.072;2023-03-16T02:25:59;100956.75;;;11.43;79.77
56040;BME280;43937;41.366;2.072;2023-03-16T02:32:01;100958.41;;;11.28;80.73
56040;BME280;43937;41.366;2.072;2023-03-16T02:34:30;100947.19;;;11.23;81.71
56040;BME280;43937;41.366;2.072;2023-03-16T02:36:56;100932.50;;;11.16;82.11
56040;BME280;43937;41.366;2.072;2023-03-16T02:39:23;100935.44;;;11.22;82.68
56040;BME280;43937;41.366;2.072;2023-03-16T02:45:24;100898.41;;;11.04;83.18
56040;BME280;43937;41.366;2.072;2023-03-16T02:52:46;100882.59;;;11.07;84.65
56040;BME280;43937;41.366;2.072;2023-03-16T02:56:34;100908.88;;;11.33;83.00
56040;BME280;43937;41.366;2.072;2023-03-16T02:59:31;100840.13;;;10.80;82.95
56040;BME280;43937;41.366;2.072;2023-03-16T03:03:14;100914.69;;;11.38;82.41
56040;BME280;43937;41.366;2.072;2023-03-16T03:05:39;100907.84;;;11.34;81.65
56040;BME280;43937;41.366;2.072;2023-03-16T03:10:31;100895.28;;;11.41;80.01
56040;BME280;43937;41.366;2.072;2023-03-16T03:15:38;100922.19;;;11.44;80.46
56040;BME280;43937;41.366;2.072;2023-03-16T03:18:04;100906.53;;;11.38;81.40
56040;BME280;43937;41.366;2.072;2023-03-16T03:24:02;100898.69;;;11.35;81.00
56040;BME280;43937;41.366;2.072;2023-03-16T03:26:27;100916.53;;;11.37;81.48
56040;BME280;43937;41.366;2.072;2023-03-16T03:33:12;100905.13;;;11.34;80.88
56040;BME280;43937;41.366;2.072;2023-03-16T03:38:22;100900.16;;;11.21;80.83
56040;BME280;43937;41.366;2.072;2023-03-16T03:47:01;100853.81;;;10.96;82.19
56040;BME280;43937;41.366;2.072;2023-03-16T03:51:00;100878.19;;;11.14;82.94
56040;BME280;43937;41.366;2.072;2023-03-16T04:00:41;100916.19;;;11.24;84.17
56040;BME280;43937;41.366;2.072;2023-03-16T04:13:02;100922.66;;;11.23;87.87
56040;BME280;43937;41.366;2.072;2023-03-16T04:16:26;100915.34;;;11.23;87.30
56040;BME280;43937;41.366;2.072;2023-03-16T04:18:53;100913.09;;;11.19;85.75
56040;BME280;43937;41.366;2.072;2023-03-16T04:24:43;100879.88;;;11.07;81.54
56040;BME280;43937;41.366;2.072;2023-03-16T04:27:09;100885.97;;;11.01;81.25
56040;BME280;43937;41.366;2.072;2023-03-16T04:29:37;100884.16;;;11.18;80.86
56040;BME280;43937;41.366;2.072;2023-03-16T04:32:05;100925.75;;;11.36;81.85
56040;BME280;43937;41.366;2.072;2023-03-16T04:35:35;100851.38;;;10.85;82.18
56040;BME280;43937;41.366;2.072;2023-03-16T04:41:46;100936.66;;;11.36;80.77
56040;BME280;43937;41.366;2.072;2023-03-16T04:57:26;100900.16;;;11.21;78.55
56040;BME280;43937;41.366;2.072;2023-03-16T05:00:54;100911.44;;;11.26;78.76
56040;BME280;43937;41.366;2.072;2023-03-16T05:03:45;100928.13;;;11.31;78.18
56040;BME280;43937;41.366;2.072;2023-03-16T05:07:48;100931.38;;;11.43;78.87
56040;BME280;43937;41.366;2.072;2023-03-16T05:13:21;100918.94;;;11.32;78.35
56040;BME280;43937;41.366;2.072;2023-03-16T05:16:26;100934.94;;;11.35;78.67
56040;BME280;43937;41.366;2.072;2023-03-16T05:18:51;100926.09;;;11.33;78.14
56040;BME280;43937;41.366;2.072;2023-03-16T05:29:50;100928.44;;;11.20;78.01
56040;BME280;43937;41.366;2.072;2023-03-16T05:33:52;100927.75;;;11.18;78.25
56040;BME280;43937;41.366;2.072;2023-03-16T05:39:47;100875.53;;;10.80;78.27
56040;BME280;43937;41.366;2.072;2023-03-16T05:42:12;100859.34;;;10.70;78.14
56040;BME280;43937;41.366;2.072;2023-03-16T05:52:48;100915.81;;;11.11;77.77
56040;BME280;43937;41.366;2.072;2023-03-16T05:58:29;100894.28;;;10.91;77.68
56040;BME280;43937;41.366;2.072;2023-03-16T06:01:28;100857.78;;;10.60;78.45
56040;BME280;43937;41.366;2.072;2023-03-16T06:05:09;100913.72;;;10.96;77.23
56040;BME280;43937;41.366;2.072;2023-03-16T06:12:30;100924.94;;;10.93;77.72
56040;BME280;43937;41.366;2.072;2023-03-16T06:16:50;100918.13;;;10.89;77.51
56040;BME280;43937;41.366;2.072;2023-03-16T06:27:37;100902.47;;;10.91;75.24
56040;BME280;43937;41.366;2.072;2023-03-16T06:31:00;100886.81;;;10.93;74.52
56040;BME280;43937;41.366;2.072;2023-03-16T06:36:20;100934.28;;;11.41;74.36
56040;BME280;43937;41.366;2.072;2023-03-16T06:42:56;100928.84;;;11.58;73.58
56040;BME280;43937;41.366;2.072;2023-03-16T06:51:07;100896.47;;;11.55;73.06
56040;BME280;43937;41.366;2.072;2023-03-16T06:55:44;100914.22;;;11.75;72.15
56040;BME280;43937;41.366;2.072;2023-03-16T07:04:30;100923.41;;;12.23;69.96
56040;BME280;43937;41.366;2.072;2023-03-16T07:18:43;100960.53;;;20.44;46.39
56040;BME280;43937;41.366;2.072;2023-03-16T07:21:59;100968.38;;;22.25;41.65
56040;BME280;43937;41.366;2.072;2023-03-16T07:26:00;100927.38;;;22.50;39.50
56040;BME280;43937;41.366;2.072;2023-03-16T07:28:57;100979.59;;;22.53;39.57
56040;BME280;43937;41.366;2.072;2023-03-16T07:31:42;100982.22;;;22.25;39.62
56040;BME280;43937;41.366;2.072;2023-03-16T07:34:08;100930.16;;;22.62;38.42
56040;BME280;43937;41.366;2.072;2023-03-16T07:36:34;100973.75;;;23.77;36.46
56040;BME280;43937;41.366;2.072;2023-03-16T07:43:11;100984.53;;;25.70;33.27
56040;BME280;43937;41.366;2.072;2023-03-16T07:56:31;100974.19;;;25.92;34.21
56040;BME280;43937;41.366;2.072;2023-03-16T07:59:09;100982.44;;;26.36;32.07
56040;BME280;43937;41.366;2.072;2023-03-16T08:01:34;100988.56;;;26.33;31.87
56040;BME280;43937;41.366;2.072;2023-03-16T08:08:41;100979.34;;;26.33;31.40
56040;BME280;43937;41.366;2.072;2023-03-16T08:12:04;100989.16;;;26.72;31.23
56040;BME280;43937;41.366;2.072;2023-03-16T08:32:02;100975.06;;;27.42;28.92
56040;BME280;43937;41.366;2.072;2023-03-16T08:42:54;100935.72;;;26.21;31.01
56040;BME280;43937;41.366;2.072;2023-03-16T08:47:10;100979.81;;;23.34;35.20
56040;BME280;43937;41.366;2.072;2023-03-16T08:49:36;100986.25;;;22.64;36.54
56040;BME280;43937;41.366;2.072;2023-03-16T09:00:23;100984.69;;;20.80;39.85
56040;BME280;43937;41.366;2.072;2023-03-16T09:07:51;100931.16;;;20.25;41.42
56040;BME280;43937;41.366;2.072;2023-03-16T09:12:27;100953.75;;;19.90;41.70
56040;BME280;43937;41.366;2.072;2023-03-16T09:14:52;100940.88;;;20.34;41.74
56040;BME280;43937;41.366;2.072;2023-03-16T09:18:41;100982.19;;;21.16;41.12
56040;BME280;43937;41.366;2.072;2023-03-16T09:21:59;100959.25;;;21.09;39.75
56040;BME280;43937;41.366;2.072;2023-03-16T09:24:39;100983.88;;;21.54;40.14
56040;BME280;43937;41.366;2.072;2023-03-16T09:32:18;100940.78;;;21.21;40.19
56040;BME280;43937;41.366;2.072;2023-03-16T09:35:27;100952.19;;;21.31;40.64
56040;BME280;43937;41.366;2.072;2023-03-16T09:45:05;100985.09;;;21.58;40.38
56040;BME280;43937;41.366;2.072;2023-03-16T09:48:22;100971.81;;;21.78;39.73
56040;BME280;43937;41.366;2.072;2023-03-16T09:53:45;100938.03;;;21.58;38.78
56040;BME280;43937;41.366;2.072;2023-03-16T10:12:52;100977.44;;;22.02;39.29
56040;BME280;43937;41.366;2.072;2023-03-16T10:15:25;100965.34;;;21.96;39.48
56040;BME280;43937;41.366;2.072;2023-03-16T10:20:19;100965.94;;;21.86;41.52
56040;BME280;43937;41.366;2.072;2023-03-16T10:27:47;100950.88;;;22.36;38.97
56040;BME280;43937;41.366;2.072;2023-03-16T10:39:10;100942.59;;;22.06;39.48
56040;BME280;43937;41.366;2.072;2023-03-16T10:41:42;100946.69;;;21.91;38.31
56040;BME280;43937;41.366;2.072;2023-03-16T10:47:32;100931.00;;;21.85;38.20
56040;BME280;43937;41.366;2.072;2023-03-16T11:00:57;100943.53;;;22.00;38.57
56040;BME280;43937;41.366;2.072;2023-03-16T11:04:49;100899.28;;;21.39;38.00
56040;BME280;43937;41.366;2.072;2023-03-16T11:07:30;100941.84;;;21.87;39.03
56040;BME280;43937;41.366;2.072;2023-03-16T11:12:49;100934.03;;;22.61;37.18
56040;BME280;43937;41.366;2.072;2023-03-16T11:20:01;100938.72;;;22.49;37.92
56040;BME280;43937;41.366;2.072;2023-03-16T11:46:50;100926.03;;;22.29;37.53
56040;BME280;43937;41.366;2.072;2023-03-16T11:49:35;100918.22;;;21.84;37.83
56040;BME280;43937;41.366;2.072;2023-03-16T12:21:40;100886.19;;;21.88;39.36
56040;BME280;43937;41.366;2.072;2023-03-16T12:25:49;100876.06;;;21.82;39.69
56040;BME280;43937;41.366;2.072;2023-03-16T12:28:35;100860.88;;;21.96;39.16
56040;BME280;43937;41.366;2.072;2023-03-16T12:49:34;100852.41;;;21.68;39.89
56040;BME280;43937;41.366;2.072;2023-03-16T13:07:32;100831.25;;;21.85;37.85
56040;BME280;43937;41.366;2.072;2023-03-16T13:10:08;100834.63;;;22.11;38.48
56040;BME280;43937;41.366;2.072;2023-03-16T13:20:34;100835.59;;;22.05;38.46
56040;BME280;43937;41.366;2.072;2023-03-16T13:33:26;100833.94;;;21.50;38.09
56040;BME280;43937;41.366;2.072;2023-03-16T13:41:10;100805.72;;;22.30;37.96
56040;BME280;43937;41.366;2.072;2023-03-16T13:53:49;100796.38;;;21.24;40.44
56040;BME280;43937;41.366;2.072;2023-03-16T14:02:57;100811.06;;;21.66;41.41
56040;BME280;43937;41.366;2.072;2023-03-16T14:24:35;100832.78;;;20.79;45.13
56040;BME280;43937;41.366;2.072;2023-03-16T14:31:37;100833.91;;;20.90;45.16
56040;BME280;43937;41.366;2.072;2023-03-16T14:36:52;100791.13;;;20.19;46.49
56040;BME280;43937;41.366;2.072;2023-03-16T14:39:30;100838.56;;;20.16;48.36
56040;BME280;43937;41.366;2.072;2023-03-16T14:49:29;100836.88;;;20.33;48.50
56040;BME280;43937;41.366;2.072;2023-03-16T14:52:37;100846.16;;;20.39;47.99
56040;BME280;43937;41.366;2.072;2023-03-16T14:57:01;100838.97;;;19.94;48.60
56040;BME280;43937;41.366;2.072;2023-03-16T15:04:27;100843.97;;;19.79;47.75
56040;BME280;43937;41.366;2.072;2023-03-16T15:13:25;100830.72;;;20.12;48.53
56040;BME280;43937;41.366;2.072;2023-03-16T15:16:51;100819.28;;;19.84;47.30
56040;BME280;43937;41.366;2.072;2023-03-16T15:19:18;100830.41;;;20.21;45.83
56040;BME280;43937;41.366;2.072;2023-03-16T15:29:58;100833.34;;;19.82;48.61
56040;BME280;43937;41.366;2.072;2023-03-16T15:33:19;100769.03;;;19.43;49.02
56040;BME280;43937;41.366;2.072;2023-03-16T15:38:24;100796.47;;;19.07;49.24
56040;BME280;43937;41.366;2.072;2023-03-16T15:44:48;100806.06;;;19.67;48.07
56040;BME280;43937;41.366;2.072;2023-03-16T15:50:50;100772.66;;;19.44;46.94
56040;BME280;43937;41.366;2.072;2023-03-16T15:55:51;100795.00;;;19.36;49.02
56040;BME280;43937;41.366;2.072;2023-03-16T16:01:23;100807.09;;;19.66;48.66
56040;BME280;43937;41.366;2.072;2023-03-16T16:05:21;100777.53;;;19.42;47.84
56040;BME280;43937;41.366;2.072;2023-03-16T16:09:42;100796.50;;;19.32;48.20
56040;BME280;43937;41.366;2.072;2023-03-16T16:15:55;100792.19;;;19.74;48.02
56040;BME280;43937;41.366;2.072;2023-03-16T16:23:45;100789.59;;;19.48;51.05
56040;BME280;43937;41.366;2.072;2023-03-16T16:29:59;100795.44;;;19.33;52.79
56040;BME280;43937;41.366;2.072;2023-03-16T16:34:20;100788.97;;;18.75;53.04
56040;BME280;43937;41.366;2.072;2023-03-16T16:37:27;100791.53;;;18.64;54.75
56040;BME280;43937;41.366;2.072;2023-03-16T16:44:59;100802.56;;;18.70;55.63
56040;BME280;43937;41.366;2.072;2023-03-16T16:47:25;100798.00;;;18.44;56.68
56040;BME280;43937;41.366;2.072;2023-03-16T16:52:53;100735.59;;;18.05;57.24
56040;BME280;43937;41.366;2.072;2023-03-16T17:00:41;100774.56;;;18.08;58.53
56040;BME280;43937;41.366;2.072;2023-03-16T17:15:17;100796.22;;;17.92;60.51
56040;BME280;43937;41.366;2.072;2023-03-16T17:18:34;100796.44;;;17.83;60.98
56040;BME280;43937;41.366;2.072;2023-03-16T17:20:59;100771.44;;;17.58;61.33
56040;BME280;43937;41.366;2.072;2023-03-16T17:28:11;100784.94;;;17.33;61.64
56040;BME280;43937;41.366;2.072;2023-03-16T17:33:47;100824.47;;;17.06;62.87
56040;BME280;43937;41.366;2.072;2023-03-16T17:47:29;100825.28;;;16.52;64.16
56040;BME280;43937;41.366;2.072;2023-03-16T17:55:07;100825.66;;;16.42;65.64
56040;BME280;43937;41.366;2.072;2023-03-16T18:01:00;100828.63;;;16.47;64.70
56040;BME280;43937;41.366;2.072;2023-03-16T18:03:27;100822.53;;;16.52;64.63
56040;BME280;43937;41.366;2.072;2023-03-16T18:09:21;100832.38;;;16.39;67.32
56040;BME280;43937;41.366;2.072;2023-03-16T18:19:22;100850.00;;;16.17;68.93
56040;BME280;43937;41.366;2.072;2023-03-16T18:27:34;100862.31;;;16.27;69.94
56040;BME280;43937;41.366;2.072;2023-03-16T18:35:13;100882.25;;;16.08;71.11
56040;BME280;43937;41.366;2.072;2023-03-16T18:57:37;100903.00;;;16.11;71.91
56040;BME280;43937;41.366;2.072;2023-03-16T19:07:31;100881.19;;;15.81;69.40
56040;BME280;43937;41.366;2.072;2023-03-16T19:12:00;100907.13;;;15.78;69.85
56040;BME280;43937;41.366;2.072;2023-03-16T19:15:28;100906.97;;;15.65;69.88
56040;BME280;43937;41.366;2.072;2023-03-16T19:21:20;100917.25;;;15.78;69.78
56040;BME280;43937;41.366;2.072;2023-03-16T19:30:54;100904.00;;;15.82;69.72
56040;BME280;43937;41.366;2.072;2023-03-16T19:33:23;100859.88;;;15.62;70.10
56040;BME280;43937;41.366;2.072;2023-03-16T19:37:27;100835.44;;;15.45;71.45
56040;BME280;43937;41.366;2.072;2023-03-16T19:41:19;100907.66;;;15.67;73.22
56040;BME280;43937;41.366;2.072;2023-03-16T19:48:11;100891.31;;;15.59;74.24
56040;BME280;43937;41.366;2.072;2023-03-16T19:55:02;100882.22;;;15.37;78.55
56040;BME280;43937;41.366;2.072;2023-03-16T19:57:27;100899.53;;;15.38;79.13
56040;BME280;43937;41.366;2.072;2023-03-16T20:01:31;100906.31;;;15.42;79.51
56040;BME280;43937;41.366;2.072;2023-03-16T20:06:51;100874.88;;;15.23;78.46
56040;BME280;43937;41.366;2.072;2023-03-16T20:10:41;100895.84;;;15.30;79.18
56040;BME280;43937;41.366;2.072;2023-03-16T20:13:08;100908.19;;;15.20;80.30
56040;BME280;43937;41.366;2.072;2023-03-16T20:18:16;100920.81;;;15.35;81.57
56040;BME280;43937;41.366;2.072;2023-03-16T20:25:03;100888.72;;;15.15;83.18
56040;BME280;43937;41.366;2.072;2023-03-16T20:27:40;100855.50;;;14.88;83.75
56040;BME280;43937;41.366;2.072;2023-03-16T20:31:48;100917.44;;;15.19;84.35
56040;BME280;43937;41.366;2.072;2023-03-16T20:35:29;100917.81;;;15.16;85.56
56040;BME280;43937;41.366;2.072;2023-03-16T20:41:00;100919.47;;;15.46;83.45
56040;BME280;43937;41.366;2.072;2023-03-16T20:45:37;100918.91;;;15.36;84.95
56040;BME280;43937;41.366;2.072;2023-03-16T20:51:54;100927.25;;;15.28;86.84
56040;BME280;43937;41.366;2.072;2023-03-16T20:56:35;100921.31;;;15.09;88.71
56040;BME280;43937;41.366;2.072;2023-03-16T21:01:33;100900.91;;;15.12;88.32
56040;BME280;43937;41.366;2.072;2023-03-16T21:03:59;100922.78;;;15.42;87.42
56040;BME280;43937;41.366;2.072;2023-03-16T21:06:27;100899.00;;;15.12;88.59
56040;BME280;43937;41.366;2.072;2023-03-16T21:08:56;100903.72;;;15.19;88.52
56040;BME280;43937;41.366;2.072;2023-03-16T21:11:25;100921.00;;;15.34;88.30
56040;BME280;43937;41.366;2.072;2023-03-16T21:20:36;100929.06;;;15.21;89.08
56040;BME280;43937;41.366;2.072;2023-03-16T21:27:39;100925.91;;;15.60;87.45
56040;BME280;43937;41.366;2.072;2023-03-16T21:31:32;100933.94;;;15.76;86.86
56040;BME280;43937;41.366;2.072;2023-03-16T21:45:02;100958.38;;;15.71;85.96
56040;BME280;43937;41.366;2.072;2023-03-16T21:47:28;100954.44;;;15.44;86.45
56040;BME280;43937;41.366;2.072;2023-03-16T21:54:33;100948.31;;;15.78;85.33
56040;BME280;43937;41.366;2.072;2023-03-16T22:02:07;100942.75;;;15.72;84.80
56040;BME280;43937;41.366;2.072;2023-03-16T22:08:27;100938.06;;;15.51;86.11
56040;BME280;43937;41.366;2.072;2023-03-16T22:11:48;100955.81;;;15.70;85.43
56040;BME280;43937;41.366;2.072;2023-03-16T22:15:13;100955.22;;;15.74;84.45
56040;BME280;43937;41.366;2.072;2023-03-16T22:20:18;100957.59;;;15.77;83.20
56040;BME280;43937;41.366;2.072;2023-03-16T22:32:00;100959.44;;;15.92;74.72
56040;BME280;43937;41.366;2.072;2023-03-16T22:38:22;100969.34;;;15.93;73.38
56040;BME280;43937;41.366;2.072;2023-03-16T22:40:48;100938.72;;;15.89;71.60
56040;BME280;43937;41.366;2.072;2023-03-16T22:49:25;100943.75;;;15.86;70.71
56040;BME280;43937;41.366;2.072;2023-03-16T22:51:53;100948.25;;;15.93;70.32
56040;BME280;43937;41.366;2.072;2023-03-16T22:54:23;100937.59;;;15.84;69.94
56040;BME280;43937;41.366;2.072;2023-03-16T22:59:17;100945.31;;;15.73;72.23
56040;BME280;43937;41.366;2.072;2023-03-16T23:01:45;100887.31;;;15.40;70.86
56040;BME280;43937;41.366;2.072;2023-03-16T23:07:16;100913.00;;;15.18;80.78
56040;BME280;43937;41.366;2.072;2023-03-16T23:13:00;100897.34;;;15.33;82.90
56040;BME280;43937;41.366;2.072;2023-03-16T23:15:28;100932.63;;;15.57;81.72
56040;BME280;43937;41.366;2.072;2023-03-16T23:17:54;100929.72;;;15.59;82.24
56040;BME280;43937;41.366;2.072;2023-03-16T23:20:39;100935.28;;;15.66;82.32
56040;BME280;43937;41.366;2.072;2023-03-16T23:26:27;100905.34;;;15.49;82.14
56040;BME280;43937;41.366;2.072;2023-03-16T23:31:56;100871.72;;;15.41;82.10
56040;BME280;43937;41.366;2.072;2023-03-16T23:39:59;100926.75;;;15.61;82.61
56040;BME280;43937;41.366;2.072;2023-03-16T23:48:37;100927.44;;;15.63;83.04
56040;BME280;43937;41.366;2.072;2023-03-16T23:51:44;100891.66;;;15.71;81.71
56040;BME280;43937;41.366;2.072;2023-03-16T23:54:17;100908.50;;;15.89;77.29
56040;BME280;43937;41.366;2.072;2023-03-16T23:56:43;100928.94;;;16.08;73.00
